Guatay, CA (91931)

7:02 PM PDT on July 27, 2016 (GMT -0700)
Pine valley | | Change Station

Elev 3671 ft 32.84 °N, 116.53 °W | Updated 14 minutes ago

Clear
Clear
82.6 °F
Feels Like 81 °F
N
4.2
Wind Variable Wind from SW

Today
High -- | Low -- °F
--% Chance of Precip.
Yesterday
High -- | Low -- °F
Precip. -- in
Pressure 29.83 in
Visibility -9999.0 miles
Clouds
Heat Index 81 °F
Dew Point 47 °F
Humidity 29%
Rainfall 0.00 in
Snow Depth Not available.
5:56 AM 7:48 PM
Last Quarter, 37% visible
METAR KCZZ 280152Z AUTO 27009KT 31/11 A2994 RMK AO1 SLP100 T03060106
Pressure 29.83 in
Visibility -9999.0 miles
Clouds
Heat Index 81 °F
Dew Point 47 °F
Humidity 29%
Rainfall 0.00 in
Snow Depth Not available.
5:56 AM 7:48 PM
Last Quarter, 37% visible
METAR KCZZ 280152Z AUTO 27009KT 31/11 A2994 RMK AO1 SLP100 T03060106

10-Day Weather Forecast

Almanac

Astronomy

Jul. 27, 2016 Rise Set
Actual Time
Civil Twilight
Nautical Twilight
Astronomical Twilight
Moon
Length of Visible Light
Length of Day
Tomorrow will be .
, % of the Moon is Illuminated

Today's Extremes

State Highs State Lows

Community

WunderPhotos

Upload Photos

1,928,008 photos uploaded!

WunderBlog® & News

Nearby

Air Quality

  Air Quality AQ Index Pollutant
Not available.

Snow Depth

Station Depth Elevation

Earthquake Activity

City Distance Mag. Time & Date
Minimum magnitude displayed is 2.5.

Coastal Water Temperatures

Place Temperature

Stations

Nearby Weather Stations

Station Location Temp. Windchill Dew Point Humidity Wind Precip. Elev Updated Type
                   

Watches & Warnings

There are currently no watches in effect.